Latest Coastal Weather Observations for Avalon

IDV60701

Issued at 5:15 pm EST Wednesday 30 July 2014 (issued every 10 minutes, with the page automatically refreshed every 10 minutes)

About coastal observations | Map of coastal stations | Coastal observations for VIC | Marine services | Other Formats
Station Details ID: 087113 Name: AVALON AIRPORT Lat: -38.03 Lon: 144.48 Height: 10.6 m
Data from the previous 72 hours. | See also: Recent months at Avalon
Date/Time
EST
Temp

°C
Wind Pressure Rain
since 9am
mm
Weather Cloud Vis
km
Sea
Height
m
Swell
Dir
 
Speed
knots
Gust
knots
hPa Trend Height
m
Period
s
Dir
30/05:00pm 16.5 NNW 16 21 1008.6 - 0.0 - Partly cloudy 10 - - - -
30/04:30pm 17.6 NNW 17 23 1008.5 - 0.0 - Partly cloudy 10 - - - -
30/04:00pm 17.3 NNW 19 24 1008.4 - 0.0 - Partly cloudy 10 - - - -
30/03:30pm 16.8 NNW 19 27 1008.8 - 0.0 - Partly cloudy 10 - - - -
30/03:00pm 17.0 NW 20 27 1008.9 - 0.0 - Cloudy 10 - - - -
30/02:49pm 17.3 NNW 19 29 1008.8 - 0.0 - Partly cloudy 10 - - - -
30/02:30pm 17.4 NW 20 28 1008.6 - 0.0 - Partly cloudy 10 - - - -
30/02:00pm 17.7 NW 22 28 1008.5 - 0.0 - Partly cloudy 10 - - - -
30/01:30pm 17.3 NW 16 22 1009.1 - 0.0 - Partly cloudy 10 - - - -
30/01:00pm 17.5 NW 20 27 1009.7 - 0.0 - Partly cloudy 10 - - - -
30/12:30pm 17.2 NW 21 28 1010.2 - 0.0 - Partly cloudy 10 - - - -
30/12:00pm 17.0 NNW 16 22 1010.5 - 0.0 - Mostly cloudy 10 - - - -
30/11:30am 16.7 NW 18 26 1011.2 - 0.0 - Cloudy 10 - - - -
30/11:00am 16.3 NW 18 25 1011.6 - 0.0 - Partly cloudy 10 - - - -
30/10:30am 16.1 NNW 17 21 1011.7 - 0.0 - Cloudy 10 - - - -
30/10:00am 14.9 NNW 17 22 1011.7 - 0.0 - Cloudy 10 - - - -
30/09:30am 14.5 NNW 15 23 1011.8 - 0.0 - Cloudy 10 - - - -
30/09:00am 14.2 NNW 17 21 1011.6 - 0.2 - Cloudy 10 - - - -
30/08:30am 12.1 N 12 14 1011.5 - 0.2 - Partly cloudy 10 - - - -
30/08:00am 11.9 N 13 16 1011.3 - 0.2 - Partly cloudy 10 - - - -
30/07:30am 11.6 N 12 15 1011.1 - 0.2 - Partly cloudy 10 - - - -
30/07:00am 12.2 NNW 12 16 1011.3 - 0.2 - Partly cloudy 10 - - - -
30/06:30am 11.3 NNW 9 12 1011.5 - 0.2 - Partly cloudy 10 - - - -
30/06:00am 11.9 NW 11 14 1011.4 - 0.2 - Partly cloudy 10 - - - -
30/05:30am 11.4 NW 10 14 1011.3 - 0.2 - Partly cloudy 10 - - - -
30/05:00am 10.9 NW 8 9 1011.1 - 0.2 - Partly cloudy 10 - - - -
30/04:30am 12.0 NW 11 16 1010.9 - 0.2 - Partly cloudy 10 - - - -
30/04:00am 12.1 WNW 17 22 1010.9 - 0.2 - Partly cloudy 10 - - - -
30/03:57am 12.1 WNW 18 25 1010.9 - 0.2 - Partly cloudy 10 - - - -
30/03:38am 12.3 W 22 38 1011.2 - 0.2 - Partly cloudy 4 - - - -
30/03:30am 13.1 WNW 22 28 1011.1 - 0.0 - Partly cloudy 5 - - - -
30/03:29am 13.3 WNW 21 28 1011.1 - 0.0 - Partly cloudy 6 - - - -
30/03:13am 14.4 WNW 16 26 1010.8 - 0.0 - Cloudy 10 - - - -
30/03:00am 14.6 WNW 18 25 1010.7 - 0.0 - Cloudy 10 - - - -
30/02:55am 14.7 WNW 15 25 1010.7 - 0.0 - Cloudy 10 - - - -
30/02:30am 14.6 WNW 14 20 1010.6 - 0.0 - Cloudy 10 - - - -
30/02:11am 14.5 NW 19 24 1010.6 - 0.0 - Partly cloudy 10 - - - -
30/02:00am 13.7 NNW 8 13 1010.6 - 0.0 - Cloudy 10 - - - -
30/01:30am 12.9 NW 3 5 1010.7 - 0.0 - Cloudy 10 - - - -
30/01:00am 13.2 WNW 9 13 1010.6 - 0.0 - Partly cloudy 10 - - - -
30/12:30am 13.5 WNW 16 22 1010.7 - 0.0 - Partly cloudy 10 - - - -
30/12:00am 13.8 NNW 12 19 1010.5 - 0.0 - Cloudy 10 - - - -
 
Date/Time
EST
Temp

°C
Wind Pressure Rain
since 9am
mm
Weather Cloud Vis
km
Sea
Height
m
Swell
Dir
 
Speed
knots
Gust
knots
hPa Trend Height
m
Period
s
Dir
29/11:30pm 13.7 WNW 10 15 1010.3 - 0.0 - Partly cloudy 10 - - - -
29/11:00pm 14.8 NW 15 25 1009.9 - 0.0 - Cloudy 10 - - - -
29/10:41pm 15.2 NW 19 24 1009.7 - 0.0 - Cloudy 10 - - - -
29/10:30pm 14.6 WNW 7 11 1009.6 - 0.0 - Cloudy 10 - - - -
29/10:00pm 15.0 WNW 11 16 1009.6 - 0.0 - Cloudy 10 - - - -
29/09:30pm 15.2 NNW 13 17 1009.0 - 0.0 - Partly cloudy 10 - - - -
29/09:00pm 15.2 NNW 15 21 1008.8 - 0.0 - Cloudy 10 - - - -
29/08:30pm 15.1 NNW 18 23 1008.5 - 0.0 - Partly cloudy 10 - - - -
29/08:00pm 15.5 NW 17 27 1008.3 - 0.0 - Partly cloudy 10 - - - -
29/07:45pm 15.7 NW 15 27 1008.5 - 0.0 - Cloudy 10 - - - -
29/07:30pm 15.3 NW 14 21 1008.6 - 0.0 - Partly cloudy 10 - - - -
29/07:04pm 15.7 NNW 19 29 1007.9 - 0.0 - Partly cloudy 10 - - - -
29/07:00pm 15.5 NNW 18 23 1008.0 - 0.0 - Partly cloudy 10 - - - -
29/06:30pm 15.6 NW 20 28 1007.4 - 0.0 - Partly cloudy 10 - - - -
29/06:00pm 15.3 NNW 20 30 1006.8 - 0.0 - Partly cloudy 10 - - - -
29/05:31pm 15.7 NW 21 32 1006.5 - 0.0 - Partly cloudy 10 - - - -
29/05:30pm 15.5 NW 21 29 1006.5 - 0.0 - Partly cloudy 10 - - - -
29/05:00pm 14.5 NNW 18 24 1006.4 - 0.0 - Partly cloudy 10 - - - -
29/04:30pm 15.6 NW 24 35 1006.4 - 0.0 - Partly cloudy 10 - - - -
29/04:23pm 15.8 NW 25 35 1006.5 - 0.0 - Partly cloudy 10 - - - -
29/04:00pm 16.5 NW 22 30 1006.1 - 0.0 - Partly cloudy 10 - - - -
29/03:36pm 16.6 NNW 21 31 1006.1 - 0.0 - Partly cloudy 10 - - - -
29/03:30pm 16.5 NNW 21 29 1006.0 - 0.0 - Partly cloudy 10 - - - -
29/03:00pm 16.4 NNW 24 33 1005.6 - 0.0 - Mostly cloudy 10 - - - -
29/02:30pm 16.6 NNW 26 36 1005.7 - 0.0 - Partly cloudy 10 - - - -
29/02:00pm 16.5 NNW 24 37 1005.6 - 0.0 - Partly cloudy 10 - - - -
29/01:52pm 16.7 NNW 22 32 1005.5 - 0.0 - Partly cloudy 10 - - - -
29/01:30pm 16.1 NNW 23 31 1005.8 - 0.0 - Partly cloudy 10 - - - -
29/01:01pm 16.5 NNW 20 30 1005.8 - 0.0 - Partly cloudy 10 - - - -
29/01:00pm 16.4 NNW 21 30 1005.9 - 0.0 - Partly cloudy 10 - - - -
29/12:30pm 15.8 NNW 19 28 1006.8 - 0.0 - Partly cloudy 10 - - - -
29/12:00pm 16.0 NNW 19 27 1007.4 - 0.0 - Mostly cloudy 10 - - - -
29/11:46am 15.7 N 17 33 1007.6 - 0.0 - Cloudy 10 - - - -
29/11:30am 15.7 N 17 25 1007.8 - 0.0 - Partly cloudy 10 - - - -
29/11:00am 16.0 NNW 21 31 1007.7 - 0.0 - Partly cloudy 10 - - - -
29/10:46am 15.6 N 15 37 1008.4 - 0.0 - Partly cloudy 10 - - - -
29/10:30am 15.2 N 12 17 1008.2 - 0.0 - Cloudy 10 - - - -
29/10:00am 15.4 NNW 15 26 1007.7 - 0.0 - Partly cloudy 10 - - - -
29/09:52am 14.7 N 18 28 1007.1 - 0.0 - Partly cloudy 10 - - - -
29/09:30am 14.6 N 21 28 1007.1 - 0.0 - Partly cloudy 10 - - - -
29/09:00am 14.3 N 20 26 1007.7 - 0.0 - Cloudy 10 - - - -
29/08:30am 13.6 N 18 25 1007.9 - 0.0 - Cloudy 10 - - - -
29/08:00am 13.1 N 14 18 1008.7 - 0.0 - Partly cloudy 10 - - - -
29/07:30am 13.1 N 11 18 1008.7 - 0.0 - Partly cloudy 10 - - - -
29/07:00am 12.5 NNW 17 25 1007.5 - 0.0 - Partly cloudy 10 - - - -
29/06:30am 12.6 NNW 17 24 1007.4 - 0.0 - Cloudy 10 - - - -
29/06:00am 12.5 NNW 17 23 1007.5 - 0.0 - Partly cloudy 10 - - - -
29/05:32am 12.4 NNW 19 30 1007.1 - 0.0 - - 10 - - - -
29/05:30am 12.4 NNW 19 27 1007.2 - 0.0 - - 10 - - - -
29/05:00am 12.4 NNW 15 23 1007.6 - 0.0 - Partly cloudy 10 - - - -
29/04:30am 12.5 NNW 16 23 1007.7 - 0.0 - Partly cloudy 10 - - - -
29/04:00am 12.0 N 11 19 1008.0 - 0.0 - Cloudy 10 - - - -
29/03:30am 11.9 N 11 15 1008.4 - 0.0 - Partly cloudy 10 - - - -
29/03:00am 12.1 N 15 18 1008.3 - 0.0 - Partly cloudy 10 - - - -
29/02:30am 12.6 N 16 20 1008.8 - 0.0 - Cloudy 10 - - - -
29/02:00am 12.5 N 15 19 1009.5 - 0.0 - Cloudy 10 - - - -
29/01:30am 12.4 N 13 20 1009.9 - 0.0 - Cloudy 10 - - - -
29/01:00am 12.3 N 12 16 1010.2 - 0.0 - Partly cloudy 10 - - - -
29/12:30am 12.3 N 12 15 1010.4 - 0.0 - - 10 - - - -
29/12:00am 12.6 N 13 17 1010.9 - 0.0 - - 10 - - - -
 
Date/Time
EST
Temp

°C
Wind Pressure Rain
since 9am
mm
Weather Cloud Vis
km
Sea
Height
m
Swell
Dir
 
Speed
knots
Gust
knots
hPa Trend Height
m
Period
s
Dir
28/11:30pm 12.8 NNW 15 19 1011.2 - 0.0 - - 10 - - - -
28/11:00pm 13.0 NNW 16 20 1011.5 - 0.0 - - 10 - - - -
28/10:30pm 13.2 NNW 16 21 1011.7 - 0.0 - - 10 - - - -
28/10:00pm 13.2 NNW 16 20 1011.6 - 0.0 - Partly cloudy 10 - - - -
28/09:30pm 13.4 NNW 15 21 1011.6 - 0.0 - - 10 - - - -
28/09:26pm 13.7 NNW 15 21 1011.6 - 0.0 - - 10 - - - -
28/09:00pm 10.7 NNE 8 11 1011.7 - 0.0 - - 10 - - - -
28/08:30pm 12.8 N 9 15 1011.7 - 0.0 - - 10 - - - -
28/08:00pm 13.3 N 11 16 1011.7 - 0.0 - - 10 - - - -
28/07:30pm 11.2 NNE 8 9 1011.7 - 0.0 - - 10 - - - -
28/07:00pm 12.7 NNE 10 13 1011.6 - 0.0 - - 10 - - - -
28/06:30pm 11.7 NE 7 9 1011.7 - 0.0 - - 10 - - - -
28/06:00pm 13.4 NNE 8 11 1011.5 - 0.0 - - 10 - - - -
28/05:30pm 14.8 N 12 16 1011.0 - 0.0 - - 10 - - - -
28/05:00pm 15.9 NNW 16 21 1011.1 - 0.0 - Partly cloudy 10 - - - -
28/04:30pm 16.8 NW 19 24 1011.6 - 0.0 - Partly cloudy 10 - - - -
28/04:00pm 16.6 NW 16 23 1011.5 - 0.0 - Partly cloudy 10 - - - -
28/03:30pm 17.1 NW 15 21 1011.7 - 0.0 - Partly cloudy 10 - - - -
28/03:00pm 17.6 NW 17 21 1011.4 - 0.0 - - 10 - - - -
28/02:30pm 18.0 NW 18 23 1011.3 - 0.0 - - 10 - - - -
28/02:00pm 18.6 NW 20 27 1011.6 - 0.0 - - 10 - - - -
28/01:30pm 18.6 NW 20 25 1011.8 - 0.0 - - 10 - - - -
28/01:00pm 18.9 NNW 13 19 1012.4 - 0.0 - Partly cloudy 10 - - - -
28/12:30pm 18.3 NNW 13 16 1013.0 - 0.0 - - 10 - - - -
28/12:00pm 17.6 NNW 15 19 1013.6 - 0.0 - - 10 - - - -
28/11:30am 17.0 NNW 15 20 1014.1 - 0.0 - - 10 - - - -
28/11:00am 15.1 N 15 23 1014.4 - 0.0 - - 10 - - - -
28/10:30am 14.3 N 15 21 1014.5 - 0.0 - - 10 - - - -
28/10:00am 13.4 N 14 19 1014.7 - 0.0 - - 10 - - - -
28/09:30am 12.2 N 15 21 1014.8 - 0.0 - - 10 - - - -
28/09:00am 10.7 N 13 16 1015.1 - 0.0 - - 10 - - - -
28/08:30am 9.3 N 13 17 1015.1 - 0.0 - - 10 - - - -
28/08:00am 9.0 N 11 14 1015.2 - 0.0 - - 10 - - - -
28/07:30am 8.6 N 12 18 1015.3 - 0.0 - - 10 - - - -
28/07:00am 9.0 N 15 21 1015.3 - 0.0 - - 10 - - - -
28/06:30am 9.1 N 12 15 1015.2 - 0.0 - - 10 - - - -
28/06:00am 9.6 N 15 19 1015.1 - 0.0 - - 10 - - - -
28/05:30am 10.0 N 14 18 1015.0 - 0.0 - - 10 - - - -
28/05:00am 10.6 N 12 16 1015.2 - 0.0 - Partly cloudy 10 - - - -
28/04:30am 10.2 N 7 11 1015.6 - 0.0 - - 10 - - - -
28/04:00am 11.1 N 10 11 1015.6 - 0.0 - - 10 - - - -
28/03:30am 10.7 NE 9 13 1016.1 - 0.0 - - 10 - - - -
28/03:00am 10.3 NNE 10 15 1016.3 - 0.0 - - 10 - - - -
28/02:30am 10.6 NNE 16 19 1016.2 - 0.0 - - 10 - - - -
28/02:00am 9.9 NNE 13 17 1016.8 - 0.0 - - 10 - - - -
28/01:30am 9.7 NNE 13 18 1017.0 - 0.0 - - 10 - - - -
28/01:00am 8.8 NNE 13 17 1017.1 - 0.0 - - 10 - - - -
28/12:30am 8.4 NNE 11 14 1017.6 - 0.0 - - 10 - - - -
28/12:00am 9.3 NNE 12 14 1018.0 - 0.0 - - 10 - - - -
 
Date/Time
EST
Temp

°C
Wind Pressure Rain
since 9am
mm
Weather Cloud Vis
km
Sea
Height
m
Swell
Dir
 
Speed
knots
Gust
knots
hPa Trend Height
m
Period
s
Dir
27/11:30pm 7.9 N 8 11 1018.6 - 0.0 - - 10 - - - -
27/11:00pm 9.1 NNE 9 12 1018.7 - 0.0 - - 10 - - - -
27/10:30pm 9.5 NNE 11 13 1019.0 - 0.0 - - 10 - - - -
27/10:00pm 9.9 NNE 11 14 1019.4 - 0.0 - - 10 - - - -
27/09:30pm 9.6 N 8 10 1019.7 - 0.0 - - 10 - - - -
27/09:00pm 10.3 N 11 14 1019.6 - 0.0 - - 10 - - - -
27/08:30pm 9.7 N 9 11 1019.7 - 0.0 - - 10 - - - -
27/08:00pm 10.3 NNE 10 13 1019.8 - 0.0 - - 10 - - - -
27/07:30pm 11.5 NNE 10 12 1020.1 - 0.0 - - 10 - - - -
27/07:00pm 11.4 N 8 9 1020.2 - 0.0 - Partly cloudy 10 - - - -
27/06:30pm 11.9 NNE 7 9 1019.9 - 0.0 - Partly cloudy 10 - - - -
27/06:00pm 12.0 N 8 10 1019.8 - 0.0 - Mostly cloudy 10 - - - -
27/05:30pm 12.7 N 9 11 1019.4 - 0.0 - Cloudy 10 - - - -

Other Formats:

Comma delimited format used in spreadsheet applications
http://www.bom.gov.au/fwo/IDV60701/IDV60701.94854.axf

JavaScript Object Notation format (JSON) in row-major order
http://www.bom.gov.au/fwo/IDV60701/IDV60701.94854.json